createdAt,value
2023-03-13T00:00:06.381Z,95.30
2023-03-13T00:05:08.800Z,95.20
2023-03-13T00:10:10.948Z,95.20
2023-03-13T00:15:12.880Z,95.10
2023-03-13T00:20:17.522Z,95.20
2023-03-13T00:25:19.496Z,95.10
2023-03-13T00:30:21.393Z,95.20
2023-03-13T00:35:23.282Z,95.10
2023-03-13T00:40:25.172Z,95.00
2023-03-13T00:45:27.072Z,95.00
2023-03-13T00:50:28.907Z,95.00
2023-03-13T00:55:30.695Z,95.00
2023-03-13T01:00:32.585Z,95.00
2023-03-13T01:05:34.386Z,95.00
2023-03-13T01:10:36.235Z,95.00
2023-03-13T01:15:38.294Z,95.10
2023-03-13T01:20:40.941Z,95.10
2023-03-13T01:25:42.891Z,95.20
2023-03-13T01:30:44.942Z,95.20
2023-03-13T01:35:46.974Z,95.20
2023-03-13T01:40:49.707Z,95.20
2023-03-13T01:46:17.852Z,95.20
2023-03-13T01:52:03.959Z,95.20
2023-03-13T01:57:16.379Z,95.30
2023-03-13T02:02:18.779Z,95.40
2023-03-13T02:07:30.010Z,95.40
2023-03-13T02:12:40.002Z,95.40
2023-03-13T02:17:43.017Z,95.80
2023-03-13T02:22:52.094Z,95.50
2023-03-13T02:28:09.073Z,95.50
2023-03-13T02:33:15.043Z,95.50
2023-03-13T02:38:22.892Z,95.60
2023-03-13T02:43:27.709Z,95.50
2023-03-13T02:48:35.934Z,95.50
2023-03-13T02:53:38.814Z,95.50
2023-03-13T02:58:49.790Z,95.50
2023-03-13T03:03:53.883Z,95.50
2023-03-13T03:08:55.732Z,95.50
2023-03-13T03:13:58.367Z,95.50
2023-03-13T03:19:01.722Z,95.50
2023-03-13T03:24:04.178Z,95.50
2023-03-13T03:29:07.870Z,95.30
2023-03-13T03:34:10.074Z,95.20
2023-03-13T03:39:12.092Z,95.20
2023-03-13T03:44:14.643Z,95.20
2023-03-13T03:49:25.901Z,95.20
2023-03-13T03:54:28.150Z,95.20
2023-03-13T03:59:30.384Z,95.20
2023-03-13T04:04:36.610Z,95.30
2023-03-13T04:09:43.085Z,95.30
2023-03-13T04:14:50.832Z,95.30
2023-03-13T04:19:52.941Z,95.30
2023-03-13T04:24:55.277Z,95.40
2023-03-13T04:29:58.295Z,95.40
2023-03-13T04:35:17.531Z,95.40
2023-03-13T04:40:48.837Z,95.40
2023-03-13T04:46:09.317Z,95.40
2023-03-13T04:51:44.565Z,95.40
2023-03-13T04:57:04.891Z,95.40
2023-03-13T05:02:36.150Z,95.40
2023-03-13T05:07:47.608Z,95.40
2023-03-13T05:13:06.115Z,95.40
2023-03-13T05:18:26.908Z,95.40
2023-03-13T05:23:57.533Z,95.40
2023-03-13T05:29:15.588Z,95.50
2023-03-13T05:34:36.186Z,95.40
2023-03-13T05:39:48.765Z,95.50
2023-03-13T05:45:10.101Z,95.50
2023-03-13T05:50:30.911Z,95.60
2023-03-13T05:55:58.646Z,95.60
2023-03-13T06:01:32.947Z,95.70
2023-03-13T06:06:40.697Z,95.70
2023-03-13T06:11:43.140Z,95.70
2023-03-13T06:16:45.828Z,95.70
2023-03-13T06:21:53.658Z,95.80
2023-03-13T06:26:55.699Z,95.80
2023-03-13T06:31:57.690Z,95.70
2023-03-13T06:37:00.519Z,95.70
2023-03-13T06:42:02.582Z,95.70
2023-03-13T06:47:05.103Z,95.80
2023-03-13T06:52:07.070Z,95.80
2023-03-13T06:57:09.080Z,95.80
2023-03-13T07:02:14.690Z,95.90
2023-03-13T07:07:29.508Z,95.90
2023-03-13T07:12:35.189Z,95.90
2023-03-13T07:17:37.487Z,96.00
2023-03-13T07:22:39.703Z,96.10
2023-03-13T07:27:41.532Z,96.10
2023-03-13T07:32:43.435Z,96.30
2023-03-13T07:37:45.343Z,96.30
2023-03-13T07:42:47.297Z,96.20
2023-03-13T07:47:49.198Z,96.20
2023-03-13T07:52:51.061Z,96.10
2023-03-13T07:57:52.944Z,96.20
2023-03-13T08:02:54.829Z,96.30
2023-03-13T08:07:56.784Z,96.30
2023-03-13T08:12:58.690Z,96.40
2023-03-13T08:18:00.498Z,96.40
2023-03-13T08:23:02.367Z,96.50
2023-03-13T08:28:04.321Z,96.60
2023-03-13T08:33:07.748Z,96.70
2023-03-13T08:38:09.804Z,96.70
2023-03-13T08:43:14.580Z,96.70
2023-03-13T08:48:16.613Z,96.80
2023-03-13T08:53:18.502Z,96.80
2023-03-13T08:58:20.382Z,96.90
2023-03-13T09:03:22.368Z,97.00
2023-03-13T09:08:24.524Z,97.20
2023-03-13T09:13:27.659Z,97.20
2023-03-13T09:18:29.930Z,97.10
2023-03-13T09:23:31.785Z,97.10
2023-03-13T09:28:34.637Z,97.60
2023-03-13T09:33:36.854Z,98.00
2023-03-13T09:38:39.306Z,98.30
2023-03-13T09:44:26.771Z,98.60
2023-03-13T09:49:45.507Z,98.30
2023-03-13T09:54:49.521Z,98.20
2023-03-13T10:00:14.819Z,98.10
2023-03-13T10:05:29.517Z,98.10
2023-03-13T10:10:43.594Z,98.00
2023-03-13T10:15:56.493Z,97.80
2023-03-13T10:21:01.793Z,97.70
2023-03-13T10:26:03.695Z,97.80
2023-03-13T10:31:21.999Z,97.80
2023-03-13T10:36:24.433Z,97.80
2023-03-13T10:41:31.059Z,97.80
2023-03-13T10:46:40.093Z,98.00
2023-03-13T10:51:50.752Z,98.00
2023-03-13T10:57:08.036Z,98.20
2023-03-13T11:02:36.006Z,98.30
2023-03-13T11:07:40.401Z,98.30
2023-03-13T11:12:47.779Z,98.40
2023-03-13T11:18:18.484Z,98.60
2023-03-13T11:23:27.675Z,98.60
2023-03-13T11:29:04.559Z,98.80
2023-03-13T11:34:13.379Z,98.90
2023-03-13T11:39:18.126Z,99.10
2023-03-13T11:44:37.674Z,99.20
2023-03-13T11:49:59.983Z,99.20
2023-03-13T11:55:29.501Z,98.90
2023-03-13T12:00:44.234Z,98.60
2023-03-13T12:05:52.910Z,98.10
2023-03-13T12:11:06.146Z,98.00
2023-03-13T12:16:19.157Z,97.90
2023-03-13T12:21:38.147Z,98.00
2023-03-13T12:26:39.951Z,97.90
2023-03-13T12:31:50.707Z,97.70
2023-03-13T12:37:02.740Z,97.70
2023-03-13T12:42:30.956Z,97.80
2023-03-13T12:47:46.148Z,97.90
2023-03-13T12:53:25.128Z,97.80
2023-03-13T12:58:30.510Z,97.80
2023-03-13T13:03:47.331Z,97.80
2023-03-13T13:09:22.586Z,97.60
2023-03-13T13:14:27.242Z,97.60
2023-03-13T13:19:43.428Z,97.60
2023-03-13T13:24:53.540Z,97.60
2023-03-13T13:30:00.875Z,97.40
2023-03-13T13:35:14.855Z,97.40
2023-03-13T13:40:16.718Z,97.40
2023-03-13T13:45:25.559Z,97.50
2023-03-13T13:50:28.797Z,97.50
2023-03-13T13:55:39.900Z,97.50
2023-03-13T14:01:01.727Z,97.40
2023-03-13T14:06:23.423Z,97.20
2023-03-13T14:11:40.063Z,97.20
2023-03-13T14:16:51.028Z,97.20
2023-03-13T14:22:05.189Z,97.30
2023-03-13T14:27:19.144Z,97.10
2023-03-13T14:32:26.272Z,97.10
2023-03-13T14:37:43.485Z,96.90
2023-03-13T14:42:58.540Z,97.00
2023-03-13T14:48:23.388Z,96.90
2023-03-13T14:53:26.531Z,97.00
2023-03-13T14:58:30.412Z,97.10
2023-03-13T15:03:33.654Z,97.30
2023-03-13T15:08:39.131Z,97.40
2023-03-13T15:13:40.942Z,97.30
2023-03-13T15:18:42.872Z,97.30
2023-03-13T15:23:51.094Z,97.30
2023-03-13T15:28:53.048Z,97.20
2023-03-13T15:33:58.446Z,97.30
2023-03-13T15:39:00.388Z,97.30
2023-03-13T15:44:02.297Z,97.20
2023-03-13T15:49:04.628Z,97.00
2023-03-13T15:54:06.561Z,96.90
2023-03-13T15:59:13.480Z,96.90
2023-03-13T16:04:15.658Z,96.80
2023-03-13T16:09:17.604Z,96.50
2023-03-13T16:14:19.484Z,96.20
2023-03-13T16:19:21.398Z,96.10
2023-03-13T16:24:23.333Z,96.10
2023-03-13T16:29:25.754Z,96.10
2023-03-13T16:34:27.680Z,96.00
2023-03-13T16:39:29.598Z,96.10
2023-03-13T16:44:31.621Z,96.10
2023-03-13T16:49:33.685Z,96.00
2023-03-13T16:54:35.590Z,96.00
2023-03-13T16:59:37.414Z,95.90
2023-03-13T17:04:39.318Z,95.80
2023-03-13T17:09:41.302Z,95.70
2023-03-13T17:14:43.766Z,95.60
2023-03-13T17:19:46.215Z,95.50
2023-03-13T17:24:49.117Z,95.40
2023-03-13T17:29:51.054Z,95.30
2023-03-13T17:34:53.039Z,95.20
2023-03-13T17:39:55.072Z,95.30
2023-03-13T17:44:56.962Z,94.90
2023-03-13T17:49:58.868Z,94.80
2023-03-13T17:55:00.829Z,94.70
2023-03-13T18:00:04.002Z,94.60
2023-03-13T18:05:13.606Z,94.60
2023-03-13T18:10:24.442Z,94.40
2023-03-13T18:15:26.997Z,94.40
2023-03-13T18:20:32.271Z,94.40
2023-03-13T18:25:34.184Z,94.30
2023-03-13T18:30:39.630Z,94.20
2023-03-13T18:35:41.834Z,94.10
2023-03-13T18:40:43.835Z,94.10
2023-03-13T18:45:45.694Z,94.00
2023-03-13T18:50:47.554Z,93.90
2023-03-13T18:55:49.496Z,93.90
2023-03-13T19:00:51.533Z,93.80
2023-03-13T19:05:53.551Z,93.70
2023-03-13T19:10:55.671Z,93.70
2023-03-13T19:15:57.558Z,93.70
2023-03-13T19:20:59.769Z,93.60
2023-03-13T19:26:04.743Z,93.50
2023-03-13T19:31:06.909Z,93.40
2023-03-13T19:36:13.832Z,93.40
2023-03-13T19:41:16.521Z,93.40
2023-03-13T19:46:23.816Z,93.30
2023-03-13T19:51:27.644Z,93.20
2023-03-13T19:56:31.651Z,93.20
2023-03-13T20:01:33.711Z,93.10
2023-03-13T20:06:36.492Z,93.10
2023-03-13T20:11:38.972Z,93.20
2023-03-13T20:16:41.370Z,93.10
2023-03-13T20:21:43.556Z,93.10
2023-03-13T20:26:48.119Z,93.00
2023-03-13T20:31:52.702Z,93.10
2023-03-13T20:36:56.913Z,93.10
2023-03-13T20:42:02.588Z,93.10
2023-03-13T20:47:05.140Z,93.10
2023-03-13T20:52:07.103Z,93.00
2023-03-13T20:57:10.331Z,93.00
2023-03-13T21:02:12.882Z,93.00
2023-03-13T21:07:14.973Z,93.00
2023-03-13T21:12:16.974Z,93.00
2023-03-13T21:17:19.272Z,93.10
2023-03-13T21:22:21.740Z,93.20
2023-03-13T21:27:23.631Z,93.30
2023-03-13T21:32:25.569Z,93.30
2023-03-13T21:37:29.128Z,93.30
2023-03-13T21:42:37.836Z,93.50
2023-03-13T21:47:40.461Z,93.50
2023-03-13T21:52:42.479Z,93.60
2023-03-13T21:57:44.336Z,93.70
2023-03-13T22:02:46.426Z,93.80
2023-03-13T22:07:58.540Z,93.80
2023-03-13T22:13:47.503Z,93.90
2023-03-13T22:19:13.318Z,93.90
2023-03-13T22:24:15.306Z,94.00
2023-03-13T22:29:17.236Z,94.10
2023-03-13T22:34:19.094Z,93.90
2023-03-13T22:39:21.166Z,93.90
2023-03-13T22:44:22.935Z,94.00
2023-03-13T22:49:24.748Z,93.90
2023-03-13T22:54:26.570Z,93.80
2023-03-13T22:59:28.477Z,93.70
2023-03-13T23:04:30.296Z,93.70
2023-03-13T23:09:32.137Z,93.70
2023-03-13T23:14:34.283Z,93.80
2023-03-13T23:19:36.447Z,93.80
2023-03-13T23:24:38.463Z,93.80
2023-03-13T23:29:40.352Z,93.80
2023-03-13T23:34:42.123Z,93.70
2023-03-13T23:39:43.986Z,93.60
2023-03-13T23:44:45.855Z,93.60
2023-03-13T23:49:47.659Z,93.50
2023-03-13T23:54:52.813Z,93.40
2023-03-13T23:59:54.612Z,93.40
